CPG3 weather

Fort Erie (Eurocopter Canada) Heliport
Fort Erie, Ontario, Canada

Public forecast

Using degrees Celsius for public forecast. Weather courtesy of forecast.io.

Closest aviation weather report (METAR) to Fort Erie (Eurocopter Canada) Heliport

Closest report is Buffalo Niagara International Airport, 9.9 nm (18.4 km) E. Retrieved 2020/08/06 09:54 UTC (8 minutes ago):

KBUF 060954Z 13003KT 10SM SCT050 BKN120 14/11 A3015 RMK AO2 SLP209 T01440111

Closest aviation forecast (TAF) to Fort Erie (Eurocopter Canada) Heliport

Closest forecast is Buffalo Niagara International Airport, 9.9 nm (18.4 km) E. Retrieved 2020/08/06 06:22 UTC (4 hours ago):

TAF KBUF 060520Z 0606/0706 24004KT P6SM SCT250 FM060900 17004KT P6SM BKN250 FM061800 05006KT P6SM SCT250 FM070200 09004KT P6SM SCT250